.
WxDataArchive / Data Records for 2010-08-23
2010-08-22 August 2010 2010-08-24

Data Records for Monday, 23 August 2010

Time	Temp	Chill	HIndex	Humid	Dewpt	 Wind 	HiWind	WindDir	Rain 	Barom 
-----	----	-----	------	-----	-----	------	------	-------	-----	----- 
00:00	70.4	70.4	70.4	84	65.3	0	0	---	0.00	30.004 
00:05	70.3	70.3	70.3	85	65.6	0	0	---	0.00	30.004 
00:10	70.3	70.3	70.3	85	65.6	0	0	---	0.00	30.004 
00:15	70.1	70.1	70.1	86	65.7	0	0	---	0.00	29.999 
00:20	70.1	70.1	70.1	86	65.7	0	1	90	0.00	29.999 
00:25	69.9	69.9	69.9	87	65.8	0	1	90	0.00	29.999 
00:30	69.9	69.9	69.9	87	65.8	0	0	---	0.00	30.001 
00:35	69.8	69.8	69.8	87	65.7	0	0	---	0.00	30.001 
00:40	69.8	69.8	69.8	88	66.1	0	0	---	0.00	30.001 
00:45	69.6	69.6	69.6	88	65.9	0	0	---	0.00	30.004 
00:50	69.6	69.6	69.6	88	65.9	0	0	---	0.00	30.004 
00:55	69.4	69.4	69.4	88	65.7	0	1	90	0.00	30.004 
01:00	69.4	69.4	69.4	89	66.0	0	1	90	0.00	30.010 
01:05	69.4	69.4	69.4	89	66.0	0	0	---	0.00	30.010 
01:10	69.3	69.3	69.3	89	65.9	0	1	90	0.00	30.010 
01:15	69.3	69.3	69.3	89	65.9	0	0	---	0.00	30.005 
01:20	69.1	69.1	69.1	90	66.0	0	1	90	0.00	30.005 
01:25	69.1	69.1	69.1	90	66.0	0	1	90	0.00	30.005 
01:30	68.9	68.9	68.9	90	65.8	0	1	90	0.00	30.003 
01:35	68.8	68.8	68.8	90	65.7	0	0	---	0.00	30.003 
01:40	68.8	68.8	68.8	90	65.7	0	0	---	0.00	30.003 
01:45	68.6	68.6	68.6	91	65.9	0	1	90	0.00	30.005 
01:50	68.6	68.6	68.6	91	65.9	0	1	90	0.00	30.005 
01:55	68.4	68.4	68.4	91	65.7	0	0	---	0.00	30.005 
02:00	68.3	68.3	68.3	91	65.6	0	0	---	0.00	30.000 
02:05	68.3	68.3	68.3	92	65.9	0	0	---	0.00	30.000 
02:10	68.1	68.1	68.1	92	65.7	0	0	---	0.00	30.000 
02:15	67.9	67.9	67.9	92	65.5	0	0	---	0.00	30.002 
02:20	67.9	67.9	67.9	92	65.5	0	0	---	0.00	30.002 
02:25	67.8	67.8	67.8	92	65.4	0	0	---	0.00	30.002 
02:30	67.8	67.8	67.8	92	65.4	0	0	---	0.00	30.005 
02:35	67.6	67.6	67.6	92	65.2	0	1	90	0.00	30.005 
02:40	67.6	67.6	67.6	92	65.2	0	0	---	0.00	30.005 
02:45	67.4	67.4	67.4	92	65.0	0	0	---	0.00	30.001 
02:50	67.3	67.3	67.3	92	64.9	0	0	---	0.00	30.001 
02:55	67.3	67.3	67.3	92	64.9	0	1	90	0.00	30.001 
03:00	67.1	67.1	67.1	92	64.7	0	1	90	0.00	30.005 
03:05	67.1	67.1	67.1	92	64.7	0	1	90	0.00	30.005 
03:10	66.9	66.9	66.9	92	64.5	0	2	90	0.00	30.005 
03:15	66.8	66.8	66.8	92	64.4	0	2	90	0.00	30.006 
03:20	66.8	66.8	66.8	92	64.4	0	1	90	0.00	30.006 
03:25	66.6	66.6	66.6	92	64.2	0	3	90	0.00	30.006 
03:30	66.6	66.6	66.6	92	64.2	0	2	112	0.00	30.008 
03:35	66.6	66.6	66.6	91	63.9	0	5	45	0.00	30.008 
03:40	66.6	66.6	66.6	91	63.9	1	5	90	0.00	30.008 
03:45	66.6	66.6	66.6	90	63.6	0	3	90	0.00	30.007 
03:50	66.6	66.6	66.6	90	63.6	0	1	90	0.00	30.007 
03:55	66.6	66.6	66.6	90	63.6	0	2	90	0.00	30.007 
04:00	66.4	66.4	66.4	90	63.4	1	3	90	0.00	30.009 
04:05	66.4	66.4	66.4	90	63.4	0	2	90	0.00	30.009 
04:10	66.3	66.3	66.3	90	63.3	0	4	90	0.00	30.009 
04:15	66.3	66.3	66.3	90	63.3	0	3	90	0.00	30.013 
04:20	66.1	66.1	66.1	90	63.1	0	1	90	0.00	30.013 
04:25	66.0	66.0	66.0	90	63.0	1	3	90	0.00	30.013 
04:30	66.0	66.0	66.0	90	63.0	0	2	90	0.00	30.014 
04:35	65.8	65.8	65.8	90	62.8	0	4	90	0.00	30.014 
04:40	65.6	65.6	65.6	90	62.6	0	1	90	0.00	30.014 
04:45	65.6	65.6	65.6	90	62.6	0	3	90	0.00	30.023 
04:50	65.6	65.6	65.6	91	62.9	0	2	90	0.00	30.023 
04:55	65.5	65.5	65.5	91	62.8	0	2	90	0.00	30.023 
05:00	65.5	65.5	65.5	91	62.8	0	1	90	0.00	30.026 
05:05	65.3	65.3	65.3	91	62.6	0	1	90	0.00	30.026 
05:10	65.3	65.3	65.3	91	62.6	0	3	90	0.00	30.026 
05:15	65.2	65.2	65.2	91	62.5	0	1	90	0.00	30.028 
05:20	65.2	65.2	65.2	91	62.5	0	2	90	0.00	30.028 
05:25	65.0	65.0	65.0	91	62.3	0	1	90	0.00	30.028 
05:30	65.0	65.0	65.0	91	62.3	0	1	90	0.00	30.029 
05:35	65.0	65.0	65.0	92	62.6	0	1	90	0.00	30.029 
05:40	65.0	65.0	65.0	92	62.6	0	1	90	0.00	30.029 
05:45	64.8	64.8	64.8	92	62.4	0	1	90	0.00	30.031 
05:50	64.7	64.7	64.7	92	62.3	0	0	---	0.00	30.031 
05:55	64.5	64.5	64.5	92	62.1	0	0	---	0.00	30.031 
06:00	64.3	64.3	64.3	92	61.9	0	0	---	0.00	30.038 
06:05	64.3	64.3	64.3	92	61.9	0	1	90	0.00	30.038 
06:10	64.2	64.2	64.2	92	61.8	0	1	90	0.00	30.038 
06:15	64.2	64.2	64.2	92	61.8	0	1	90	0.00	30.044 
06:20	64.2	64.2	64.2	92	61.8	0	1	90	0.00	30.044 
06:25	64.0	64.0	64.0	93	61.9	0	0	---	0.00	30.044 
06:30	63.9	63.9	63.9	93	61.8	0	0	---	0.00	30.045 
06:35	63.7	63.7	63.7	93	61.6	0	0	---	0.00	30.045 
06:40	63.5	63.5	63.5	93	61.4	0	0	---	0.00	30.045 
06:45	63.5	63.5	63.5	93	61.4	0	1	90	0.00	30.047 
06:50	63.4	63.4	63.4	93	61.3	0	0	---	0.00	30.047 
06:55	63.2	63.2	63.2	93	61.1	0	0	---	0.00	30.047 
07:00	63.2	63.2	63.2	93	61.1	0	0	---	0.00	30.055 
07:05	63.2	63.2	63.2	93	61.1	0	0	---	0.00	30.055 
07:10	63.2	63.2	63.2	93	61.1	0	0	---	0.00	30.055 
07:15	63.2	63.2	63.2	94	61.4	0	0	---	0.00	30.062 
07:20	63.5	63.5	63.5	94	61.7	0	3	90	0.00	30.062 
07:25	63.7	63.7	63.7	94	61.9	0	0	---	0.00	30.062 
07:30	63.9	63.9	63.9	94	62.1	0	2	90	0.00	30.061 
07:35	64.2	64.2	64.2	94	62.4	0	2	90	0.00	30.061 
07:40	64.2	64.2	64.2	94	62.4	0	2	90	0.00	30.061 
07:45	64.3	64.3	64.3	93	62.2	0	1	90	0.00	30.063 
07:50	64.3	64.3	64.3	93	62.2	0	2	90	0.00	30.063 
07:55	64.5	64.5	64.5	93	62.4	0	1	90	0.00	30.063 
08:00	64.8	64.8	64.8	92	62.4	0	0	---	0.00	30.065 
08:05	65.0	65.0	65.0	92	62.6	0	0	---	0.00	30.065 
08:10	65.0	65.0	65.0	91	62.3	0	1	90	0.00	30.065 
08:15	65.5	65.5	65.5	91	62.8	0	1	90	0.00	30.069 
08:20	65.8	65.8	65.8	89	62.5	0	1	90	0.00	30.069 
08:25	66.1	66.1	66.1	88	62.4	0	0	---	0.00	30.069 
08:30	66.4	66.4	66.4	86	62.1	0	4	90	0.00	30.074 
08:35	66.9	66.9	66.9	85	62.2	0	1	90	0.00	30.074 
08:40	67.1	67.1	67.1	84	62.1	0	2	90	0.00	30.074 
08:45	67.3	67.3	67.3	84	62.3	0	2	90	0.00	30.069 
08:50	67.6	67.6	67.6	83	62.2	0	3	90	0.00	30.069 
08:55	67.9	67.9	67.9	82	62.2	0	2	90	0.00	30.069 
09:00	68.3	68.3	68.3	82	62.6	0	1	90	0.00	30.072 
09:05	68.8	68.8	68.8	82	63.1	0	0	---	0.00	30.072 
09:10	68.9	68.9	68.9	81	62.8	0	2	90	0.00	30.072 
09:15	69.1	69.1	69.1	81	63.0	0	3	90	0.00	30.076 
09:20	69.3	69.3	69.3	81	63.2	0	1	90	0.00	30.076 
09:25	69.6	69.6	69.6	81	63.5	0	3	90	0.00	30.076 
09:30	69.9	69.9	69.9	81	63.8	0	3	90	0.00	30.073 
09:35	70.4	70.4	70.4	78	63.2	1	4	90	0.00	30.073 
09:40	70.6	70.6	70.6	78	63.4	1	4	90	0.00	30.073 
09:45	70.8	70.8	70.8	78	63.6	1	3	90	0.00	30.071 
09:50	71.3	71.3	71.3	77	63.7	1	3	90	0.00	30.071 
09:55	71.8	71.8	71.8	76	63.8	0	3	90	0.00	30.071 
10:00	72.1	72.1	72.1	76	64.1	0	3	90	0.00	30.070 
10:05	72.5	72.5	72.5	76	64.5	0	4	112	0.00	30.070 
10:10	73.2	73.2	73.2	74	64.4	1	3	112	0.00	30.070 
10:15	73.7	73.7	73.7	73	64.5	1	4	112	0.00	30.069 
10:20	74.2	74.2	74.2	71	64.2	1	4	112	0.00	30.069 
10:25	73.9	73.9	73.9	72	64.3	3	6	112	0.00	30.069 
10:30	73.2	73.2	73.2	73	64.0	2	4	90	0.00	30.067 
10:35	73.2	73.2	73.2	74	64.4	1	9	112	0.00	30.067 
10:40	73.2	73.2	73.2	76	65.2	1	5	112	0.00	30.067 
10:45	73.5	73.5	73.5	73	64.3	2	6	112	0.00	30.064 
10:50	74.0	74.0	74.0	71	64.0	2	5	112	0.00	30.064 
10:55	74.4	74.4	74.4	71	64.4	0	3	112	0.00	30.064 
11:00	74.7	74.7	74.7	70	64.2	1	3	112	0.00	30.060 
11:05	75.4	75.4	77.1	69	64.5	1	4	112	0.00	30.060 
11:10	75.6	75.6	77.3	69	64.7	1	4	112	0.00	30.060 
11:15	76.7	76.7	78.5	68	65.3	1	5	112	0.00	30.060 
11:20	77.2	77.2	79.0	65	64.5	1	4	112	0.00	30.060 
11:25	76.8	76.8	78.6	66	64.6	2	5	112	0.00	30.060 
11:30	76.5	76.5	78.3	66	64.3	1	5	135	0.00	30.065 
11:35	76.5	76.5	78.3	67	64.7	2	6	90	0.00	30.065 
11:40	76.5	76.5	78.3	67	64.7	2	5	68	0.00	30.065 
11:45	76.0	76.0	77.8	66	63.8	1	3	68	0.00	30.072 
11:50	75.4	75.4	77.2	68	64.1	1	6	68	0.00	30.072 
11:55	75.1	75.1	76.9	69	64.2	1	5	112	0.00	30.072 
12:00	75.1	75.1	76.9	69	64.2	1	4	112	0.00	30.070 
12:05	75.1	75.1	77.0	67	63.4	1	7	90	0.00	30.070 
12:10	75.6	75.6	77.5	66	63.4	2	6	90	0.00	30.070 
12:15	76.8	76.8	78.6	64	63.7	1	4	112	0.00	30.062 
12:20	76.7	76.7	78.5	65	64.0	1	4	112	0.00	30.062 
12:25	76.5	76.5	78.3	65	63.8	2	8	90	0.00	30.062 
12:30	76.8	76.8	78.6	64	63.7	2	7	112	0.00	30.061 
12:35	76.8	76.8	78.6	65	64.1	1	4	112	0.00	30.061 
12:40	76.5	76.5	78.3	65	63.8	2	6	68	0.00	30.061 
12:45	76.3	76.3	78.1	66	64.1	1	4	112	0.00	30.061 
12:50	76.0	76.0	77.9	65	63.4	1	6	90	0.00	30.061 
12:55	76.5	76.5	78.3	64	63.4	1	4	90	0.00	30.061 
13:00	77.2	77.2	79.0	62	63.2	3	10	112	0.00	30.059 
13:05	77.6	77.6	79.4	62	63.5	2	6	112	0.00	30.059 
13:10	77.4	77.4	79.1	61	62.9	1	5	90	0.00	30.059 
13:15	77.4	77.4	79.2	62	63.3	1	5	135	0.00	30.061 
13:20	77.6	77.6	79.4	62	63.5	2	5	112	0.00	30.061 
13:25	77.2	77.2	79.0	62	63.2	2	5	135	0.00	30.061 
13:30	76.8	76.8	78.6	63	63.2	1	3	135	0.00	30.061 
13:35	76.5	76.5	78.3	63	62.9	3	6	112	0.00	30.061 
13:40	76.3	76.3	78.2	64	63.2	1	4	112	0.00	30.061 
13:45	76.1	76.1	78.0	65	63.5	1	4	112	0.00	30.061 
13:50	76.1	76.1	78.0	64	63.0	1	4	112	0.00	30.061 
13:55	76.7	76.7	78.5	64	63.6	1	4	112	0.00	30.061 
14:00	77.0	77.0	78.8	62	63.0	2	7	90	0.00	30.055 
14:05	77.2	77.2	79.0	62	63.2	1	4	112	0.00	30.055 
14:10	77.4	77.4	79.2	63	63.8	0	2	112	0.00	30.055 
14:15	77.9	77.9	79.6	61	63.3	0	3	112	0.00	30.048 
14:20	78.5	78.5	80.1	59	63.0	0	3	90	0.00	30.048 
14:25	78.5	78.5	80.1	59	63.0	0	2	112	0.00	30.048 
14:30	78.3	78.3	80.0	60	63.2	0	2	90	0.00	30.046 
14:35	77.9	77.9	79.6	60	62.9	0	3	90	0.00	30.046 
14:40	77.9	77.9	79.6	60	62.9	1	4	112	0.00	30.046 
14:45	77.7	77.7	79.4	60	62.7	0	2	90	0.00	30.046 
14:50	77.6	77.6	79.3	61	63.1	0	2	90	0.00	30.046 
14:55	77.9	77.9	79.6	61	63.3	1	3	90	0.00	30.046 
15:00	77.9	77.9	79.6	60	62.9	0	2	90	0.00	30.046 
15:05	78.3	78.3	80.0	60	63.2	1	3	90	0.00	30.046 
15:10	78.5	78.5	80.2	60	63.4	1	3	112	0.00	30.046 
15:15	78.6	78.6	80.1	58	62.6	0	2	112	0.00	30.039 
15:20	79.0	79.0	80.6	59	63.4	0	2	112	0.00	30.039 
15:25	79.0	79.0	80.5	58	62.9	1	4	135	0.00	30.039 
15:30	78.6	78.6	80.2	59	63.1	1	4	112	0.00	30.036 
15:35	78.6	78.6	80.1	58	62.6	1	3	112	0.00	30.036 
15:40	78.6	78.6	80.2	59	63.1	0	2	112	0.00	30.036 
15:45	78.6	78.6	80.2	59	63.1	0	2	135	0.00	30.038 
15:50	78.6	78.6	80.3	60	63.5	0	2	135	0.00	30.038 
15:55	78.5	78.5	80.2	60	63.4	0	4	135	0.00	30.038 
16:00	78.3	78.3	80.0	60	63.2	0	4	68	0.00	30.033 
16:05	78.1	78.1	79.8	60	63.1	1	2	45	0.00	30.033 
16:10	78.1	78.1	79.8	61	63.5	0	1	0	0.00	30.033 
16:15	78.1	78.1	79.8	60	63.1	0	2	0	0.00	30.031 
16:20	78.3	78.3	80.1	62	64.2	0	1	0	0.00	30.031 
16:25	78.6	78.6	80.4	62	64.5	0	2	0	0.00	30.031 
16:30	78.8	78.8	80.5	61	64.2	0	2	315	0.00	30.029 
16:35	78.6	78.6	80.2	59	63.1	0	2	315	0.00	30.029 
16:40	78.8	78.8	80.5	60	63.7	0	2	45	0.00	30.029 
16:45	78.8	78.8	80.4	59	63.2	1	3	0	0.00	30.022 
16:50	79.0	79.0	80.6	59	63.4	0	2	0	0.00	30.022 
16:55	79.2	79.2	80.9	60	64.1	1	3	270	0.00	30.022 
17:00	79.4	79.4	80.9	58	63.3	0	4	112	0.00	30.024 
17:05	79.4	79.4	80.9	58	63.3	1	3	112	0.00	30.024 
17:10	79.2	79.2	80.7	58	63.1	1	3	90	0.00	30.024 
17:15	79.2	79.2	80.7	58	63.1	1	3	68	0.00	30.028 
17:20	79.2	79.2	80.7	58	63.1	1	4	68	0.00	30.028 
17:25	79.0	79.0	80.6	59	63.4	0	2	68	0.00	30.028 
17:30	78.8	78.8	80.4	59	63.2	0	3	68	0.00	30.027 
17:35	78.6	78.6	80.2	59	63.1	1	4	112	0.00	30.027 
17:40	78.6	78.6	80.2	59	63.1	1	3	112	0.00	30.027 
17:45	78.6	78.6	80.3	60	63.5	1	4	112	0.00	30.022 
17:50	78.6	78.6	80.3	60	63.5	1	5	112	0.00	30.022 
17:55	78.3	78.3	79.9	59	62.8	1	5	90	0.00	30.022 
18:00	78.1	78.1	79.8	60	63.1	1	5	90	0.00	30.021 
18:05	78.1	78.1	79.8	60	63.1	0	3	112	0.00	30.021 
18:10	77.9	77.9	79.6	61	63.3	0	2	112	0.00	30.021 
18:15	77.9	77.9	79.6	61	63.3	1	3	112	0.00	30.022 
18:20	77.9	77.9	79.6	60	62.9	1	5	112	0.00	30.022 
18:25	77.9	77.9	79.6	61	63.3	1	4	90	0.00	30.022 
18:30	77.6	77.6	79.3	61	63.1	0	2	158	0.00	30.020 
18:35	77.6	77.6	79.3	61	63.1	1	4	135	0.00	30.020 
18:40	77.4	77.4	79.1	61	62.9	1	5	135	0.00	30.020 
18:45	77.4	77.4	79.1	61	62.9	1	4	68	0.00	30.020 
18:50	77.2	77.2	79.0	62	63.2	1	3	68	0.00	30.020 
18:55	77.0	77.0	78.8	63	63.4	0	2	68	0.00	30.020 
19:00	77.2	77.2	79.0	62	63.2	1	4	90	0.00	30.019 
19:05	77.2	77.2	79.0	62	63.2	1	5	90	0.00	30.019 
19:10	77.0	77.0	78.8	62	63.0	1	4	90	0.00	30.019 
19:15	76.8	76.8	78.6	63	63.2	1	3	112	0.00	30.018 
19:20	76.5	76.5	78.3	63	62.9	1	3	112	0.00	30.018 
19:25	76.3	76.3	78.2	64	63.2	1	4	112	0.00	30.018 
19:30	76.1	76.1	78.0	63	62.6	1	4	68	0.00	30.020 
19:35	76.0	76.0	77.9	64	62.9	0	5	68	0.00	30.020 
19:40	75.8	75.8	77.7	65	63.2	0	2	158	0.00	30.020 
19:45	75.6	75.6	77.5	65	63.0	0	1	158	0.00	30.022 
19:50	75.3	75.3	77.2	66	63.1	0	2	158	0.00	30.022 
19:55	75.1	75.1	77.1	66	62.9	0	1	158	0.00	30.022 
20:00	74.9	74.9	74.9	67	63.2	0	3	158	0.00	30.022 
20:05	74.7	74.7	74.7	68	63.4	0	1	158	0.00	30.022 
20:10	74.6	74.6	74.6	68	63.3	0	2	158	0.00	30.022 
20:15	74.4	74.4	74.4	69	63.5	0	3	135	0.00	30.021 
20:20	74.0	74.0	74.0	69	63.2	0	1	135	0.00	30.021 
20:25	73.9	73.9	73.9	70	63.5	0	1	135	0.00	30.021 
20:30	73.5	73.5	73.5	70	63.1	0	1	135	0.00	30.022 
20:35	73.3	73.3	73.3	71	63.3	0	1	135	0.00	30.022 
20:40	73.0	73.0	73.0	71	63.0	0	1	135	0.00	30.022 
20:45	72.8	72.8	72.8	72	63.2	0	2	45	0.00	30.025 
20:50	72.7	72.7	72.7	73	63.5	0	0	---	0.00	30.025 
20:55	72.5	72.5	72.5	73	63.3	0	1	45	0.00	30.025 
21:00	72.3	72.3	72.3	73	63.1	0	2	45	0.00	30.029 
21:05	72.3	72.3	72.3	73	63.1	0	1	45	0.00	30.029 
21:10	72.1	72.1	72.1	74	63.3	0	2	45	0.00	30.029 
21:15	72.0	72.0	72.0	74	63.2	0	2	45	0.00	30.029 
21:20	71.8	71.8	71.8	74	63.1	0	0	---	0.00	30.029 
21:25	71.6	71.6	71.6	75	63.2	0	0	---	0.00	30.029 
21:30	71.3	71.3	71.3	76	63.3	0	1	45	0.00	30.030 
21:35	71.1	71.1	71.1	76	63.1	0	0	---	0.00	30.030 
21:40	70.9	70.9	70.9	77	63.3	0	1	45	0.00	30.030 
21:45	70.8	70.8	70.8	77	63.2	0	1	45	0.00	30.033 
21:50	70.8	70.8	70.8	77	63.2	0	1	45	0.00	30.033 
21:55	70.4	70.4	70.4	78	63.2	0	1	45	0.00	30.033 
22:00	70.3	70.3	70.3	78	63.1	0	0	---	0.00	30.034 
22:05	70.1	70.1	70.1	79	63.3	0	0	---	0.00	30.034 
22:10	69.9	69.9	69.9	79	63.1	0	0	---	0.00	30.034 
22:15	69.6	69.6	69.6	80	63.1	0	1	45	0.00	30.032 
22:20	69.4	69.4	69.4	80	63.0	0	0	---	0.00	30.032 
22:25	69.3	69.3	69.3	81	63.2	0	1	45	0.00	30.032 
22:30	69.3	69.3	69.3	81	63.2	0	1	45	0.00	30.035 
22:35	69.1	69.1	69.1	81	63.0	0	0	---	0.00	30.035 
22:40	69.1	69.1	69.1	81	63.0	0	1	45	0.00	30.035 
22:45	68.9	68.9	68.9	81	62.8	0	1	45	0.00	30.038 
22:50	68.9	68.9	68.9	81	62.8	0	2	45	0.00	30.038 
22:55	68.8	68.8	68.8	81	62.7	0	2	45	0.00	30.038 
23:00	68.9	68.9	68.9	81	62.8	0	2	45	0.00	30.040 
23:05	68.9	68.9	68.9	81	62.8	0	1	112	0.00	30.040 
23:10	68.8	68.8	68.8	81	62.7	0	1	112	0.00	30.040 
23:15	68.8	68.8	68.8	81	62.7	0	3	45	0.00	30.042 
23:20	68.6	68.6	68.6	82	62.9	0	1	180	0.00	30.042 
23:25	68.4	68.4	68.4	82	62.7	0	1	180	0.00	30.042 
23:30	68.3	68.3	68.3	82	62.6	0	0	---	0.00	30.035 
23:35	68.1	68.1	68.1	82	62.4	0	0	---	0.00	30.035 
23:40	67.9	67.9	67.9	83	62.5	0	0	---	0.00	30.035 
23:45	67.6	67.6	67.6	83	62.2	0	0	---	0.00	30.033 
23:50	67.4	67.4	67.4	84	62.4	0	0	---	0.00	30.033 
23:55	67.1	67.1	67.1	84	62.1	0	0	---	0.00	30.033 

CoCoRaHS
IN-AL-39
A2 Web Hosting
Creative Commons License
GoDaddy
search engine by freefind advanced

loaded 2018-11-13 23:23:03 • last modified 2010-11-18 10:43:29
Privacy PolicyDisclaimer
• wx.awcolley.com is powered by PmWiki v.2002016 •
• all content (unless otherwise noted) © 2018 A W Colley